sensor_id;sensor_type;location;lat;lon;timestamp;temperature;humidity
9980;DHT22;5030;51.532;6.766;2023-04-06T00:01:38;0.10;99.90
9980;DHT22;5030;51.532;6.766;2023-04-06T00:04:04;0.00;99.90
9980;DHT22;5030;51.532;6.766;2023-04-06T00:06:30;0.00;99.90
9980;DHT22;5030;51.532;6.766;2023-04-06T00:08:57;-0.10;99.90
9980;DHT22;5030;51.532;6.766;2023-04-06T00:11:23;-0.20;99.90
9980;DHT22;5030;51.532;6.766;2023-04-06T00:13:49;-0.20;99.90
9980;DHT22;5030;51.532;6.766;2023-04-06T00:16:15;-0.20;99.90
9980;DHT22;5030;51.532;6.766;2023-04-06T00:18:41;-0.30;99.90
9980;DHT22;5030;51.532;6.766;2023-04-06T00:21:06;-0.20;99.90
9980;DHT22;5030;51.532;6.766;2023-04-06T00:23:32;-0.10;99.90
9980;DHT22;5030;51.532;6.766;2023-04-06T00:25:58;-0.30;99.90
9980;DHT22;5030;51.532;6.766;2023-04-06T00:28:23;-0.40;99.90
9980;DHT22;5030;51.532;6.766;2023-04-06T00:30:52;-0.40;99.90
9980;DHT22;5030;51.532;6.766;2023-04-06T00:33:19;-0.50;99.90
9980;DHT22;5030;51.532;6.766;2023-04-06T00:35:45;-0.50;99.90
9980;DHT22;5030;51.532;6.766;2023-04-06T00:38:11;-0.50;99.90
9980;DHT22;5030;51.532;6.766;2023-04-06T00:40:38;-0.50;99.90
9980;DHT22;5030;51.532;6.766;2023-04-06T00:43:07;-0.60;99.90
9980;DHT22;5030;51.532;6.766;2023-04-06T00:45:34;-0.60;99.90
9980;DHT22;5030;51.532;6.766;2023-04-06T00:48:00;-0.50;99.90
9980;DHT22;5030;51.532;6.766;2023-04-06T00:50:27;-0.60;99.90
9980;DHT22;5030;51.532;6.766;2023-04-06T00:52:54;-0.60;99.90
9980;DHT22;5030;51.532;6.766;2023-04-06T00:55:21;-0.70;99.90
9980;DHT22;5030;51.532;6.766;2023-04-06T00:57:47;-0.60;99.90
9980;DHT22;5030;51.532;6.766;2023-04-06T01:00:13;-0.60;99.90
9980;DHT22;5030;51.532;6.766;2023-04-06T01:02:39;-0.70;99.90
9980;DHT22;5030;51.532;6.766;2023-04-06T01:05:06;-0.80;99.90
9980;DHT22;5030;51.532;6.766;2023-04-06T01:07:32;-0.70;99.90
9980;DHT22;5030;51.532;6.766;2023-04-06T01:09:58;-0.60;99.90
9980;DHT22;5030;51.532;6.766;2023-04-06T01:12:24;-0.70;99.90
9980;DHT22;5030;51.532;6.766;2023-04-06T01:14:49;-0.70;99.90
9980;DHT22;5030;51.532;6.766;2023-04-06T01:17:15;-0.70;99.90
9980;DHT22;5030;51.532;6.766;2023-04-06T01:19:41;-0.70;99.90
9980;DHT22;5030;51.532;6.766;2023-04-06T01:22:07;-0.80;99.90
9980;DHT22;5030;51.532;6.766;2023-04-06T01:24:33;-0.70;99.90
9980;DHT22;5030;51.532;6.766;2023-04-06T01:26:59;-0.70;99.90
9980;DHT22;5030;51.532;6.766;2023-04-06T01:29:26;-0.70;99.90
9980;DHT22;5030;51.532;6.766;2023-04-06T01:31:51;-0.70;99.90
9980;DHT22;5030;51.532;6.766;2023-04-06T01:34:17;-0.60;99.90
9980;DHT22;5030;51.532;6.766;2023-04-06T01:36:43;-0.60;99.90
9980;DHT22;5030;51.532;6.766;2023-04-06T01:39:09;-0.70;99.90
9980;DHT22;5030;51.532;6.766;2023-04-06T01:41:34;-0.60;99.90
9980;DHT22;5030;51.532;6.766;2023-04-06T01:44:01;-0.70;99.90
9980;DHT22;5030;51.532;6.766;2023-04-06T01:46:27;-0.80;99.90
9980;DHT22;5030;51.532;6.766;2023-04-06T01:48:52;-0.80;99.90
9980;DHT22;5030;51.532;6.766;2023-04-06T01:51:18;-0.90;99.90
9980;DHT22;5030;51.532;6.766;2023-04-06T01:53:44;-0.90;99.90
9980;DHT22;5030;51.532;6.766;2023-04-06T01:58:47;-0.80;99.90
9980;DHT22;5030;51.532;6.766;2023-04-06T02:01:13;-0.90;99.90
9980;DHT22;5030;51.532;6.766;2023-04-06T02:03:38;-0.80;99.90
9980;DHT22;5030;51.532;6.766;2023-04-06T02:09:28;-1.00;99.90
9980;DHT22;5030;51.532;6.766;2023-04-06T02:11:54;-1.00;99.90
9980;DHT22;5030;51.532;6.766;2023-04-06T02:14:21;-0.90;99.90
9980;DHT22;5030;51.532;6.766;2023-04-06T02:16:47;-0.90;99.90
9980;DHT22;5030;51.532;6.766;2023-04-06T02:19:12;-0.90;99.90
9980;DHT22;5030;51.532;6.766;2023-04-06T02:21:38;-0.80;99.90
9980;DHT22;5030;51.532;6.766;2023-04-06T02:24:04;-0.80;99.90
9980;DHT22;5030;51.532;6.766;2023-04-06T02:26:30;-0.80;99.90
9980;DHT22;5030;51.532;6.766;2023-04-06T02:28:55;-0.80;99.90
9980;DHT22;5030;51.532;6.766;2023-04-06T02:31:21;-0.70;99.90
9980;DHT22;5030;51.532;6.766;2023-04-06T02:33:47;-0.70;99.90
9980;DHT22;5030;51.532;6.766;2023-04-06T02:36:12;-0.70;99.90
9980;DHT22;5030;51.532;6.766;2023-04-06T02:38:38;-0.60;99.90
9980;DHT22;5030;51.532;6.766;2023-04-06T02:41:03;-0.50;99.90
9980;DHT22;5030;51.532;6.766;2023-04-06T02:43:29;-0.40;99.90
9980;DHT22;5030;51.532;6.766;2023-04-06T02:45:55;-0.50;99.90
9980;DHT22;5030;51.532;6.766;2023-04-06T02:48:21;-0.40;99.90
9980;DHT22;5030;51.532;6.766;2023-04-06T02:50:47;-0.60;99.90
9980;DHT22;5030;51.532;6.766;2023-04-06T02:53:12;-0.50;99.90
9980;DHT22;5030;51.532;6.766;2023-04-06T02:55:38;-0.50;99.90
9980;DHT22;5030;51.532;6.766;2023-04-06T02:58:04;-0.60;99.90
9980;DHT22;5030;51.532;6.766;2023-04-06T03:00:29;-0.60;99.90
9980;DHT22;5030;51.532;6.766;2023-04-06T03:03:00;-0.60;99.90
9980;DHT22;5030;51.532;6.766;2023-04-06T03:05:26;-0.60;99.90
9980;DHT22;5030;51.532;6.766;2023-04-06T03:07:53;-0.70;99.90
9980;DHT22;5030;51.532;6.766;2023-04-06T03:10:19;-0.60;99.90
9980;DHT22;5030;51.532;6.766;2023-04-06T03:12:44;-0.70;99.90
9980;DHT22;5030;51.532;6.766;2023-04-06T03:15:10;-0.70;99.90
9980;DHT22;5030;51.532;6.766;2023-04-06T03:17:36;-0.70;99.90
9980;DHT22;5030;51.532;6.766;2023-04-06T03:20:03;-0.80;99.90
9980;DHT22;5030;51.532;6.766;2023-04-06T03:22:29;-0.70;99.90
9980;DHT22;5030;51.532;6.766;2023-04-06T03:24:55;-0.70;99.90
9980;DHT22;5030;51.532;6.766;2023-04-06T03:27:20;-0.70;99.90
9980;DHT22;5030;51.532;6.766;2023-04-06T03:29:46;-0.50;99.90
9980;DHT22;5030;51.532;6.766;2023-04-06T03:32:12;-0.50;99.90
9980;DHT22;5030;51.532;6.766;2023-04-06T03:34:38;-0.50;99.90
9980;DHT22;5030;51.532;6.766;2023-04-06T03:37:04;-0.60;99.90
9980;DHT22;5030;51.532;6.766;2023-04-06T03:39:30;-0.60;99.90
9980;DHT22;5030;51.532;6.766;2023-04-06T03:41:56;-0.70;99.90
9980;DHT22;5030;51.532;6.766;2023-04-06T03:44:22;-0.60;99.90
9980;DHT22;5030;51.532;6.766;2023-04-06T03:46:47;-0.60;99.90
9980;DHT22;5030;51.532;6.766;2023-04-06T03:49:13;-0.60;99.90
9980;DHT22;5030;51.532;6.766;2023-04-06T03:51:39;-0.60;99.90
9980;DHT22;5030;51.532;6.766;2023-04-06T03:54:04;-0.50;99.90
9980;DHT22;5030;51.532;6.766;2023-04-06T03:56:30;-0.50;99.90
9980;DHT22;5030;51.532;6.766;2023-04-06T03:58:56;-0.60;99.90
9980;DHT22;5030;51.532;6.766;2023-04-06T04:01:23;-0.60;99.90
9980;DHT22;5030;51.532;6.766;2023-04-06T04:03:49;-0.50;99.90
9980;DHT22;5030;51.532;6.766;2023-04-06T04:06:14;-0.50;99.90
9980;DHT22;5030;51.532;6.766;2023-04-06T04:08:40;-0.50;99.90
9980;DHT22;5030;51.532;6.766;2023-04-06T04:11:06;-0.40;99.90
9980;DHT22;5030;51.532;6.766;2023-04-06T04:13:32;-0.50;99.90
9980;DHT22;5030;51.532;6.766;2023-04-06T04:15:58;-0.60;99.90
9980;DHT22;5030;51.532;6.766;2023-04-06T04:18:24;-0.60;99.90
9980;DHT22;5030;51.532;6.766;2023-04-06T04:20:49;-0.50;99.90
9980;DHT22;5030;51.532;6.766;2023-04-06T04:23:15;-0.60;99.90
9980;DHT22;5030;51.532;6.766;2023-04-06T04:25:41;-0.60;99.90
9980;DHT22;5030;51.532;6.766;2023-04-06T04:28:07;-0.60;99.90
9980;DHT22;5030;51.532;6.766;2023-04-06T04:30:32;-0.60;99.90
9980;DHT22;5030;51.532;6.766;2023-04-06T04:32:58;-0.60;99.90
9980;DHT22;5030;51.532;6.766;2023-04-06T04:35:23;-0.70;99.90
9980;DHT22;5030;51.532;6.766;2023-04-06T04:37:49;-0.60;99.90
9980;DHT22;5030;51.532;6.766;2023-04-06T04:40:15;-0.80;99.90
9980;DHT22;5030;51.532;6.766;2023-04-06T04:42:42;-0.80;99.90
9980;DHT22;5030;51.532;6.766;2023-04-06T04:45:08;-0.80;99.90
9980;DHT22;5030;51.532;6.766;2023-04-06T04:47:33;-0.80;99.90
9980;DHT22;5030;51.532;6.766;2023-04-06T04:49:59;-1.00;99.90
9980;DHT22;5030;51.532;6.766;2023-04-06T04:52:26;-0.90;99.90
9980;DHT22;5030;51.532;6.766;2023-04-06T04:54:51;-0.90;99.90
9980;DHT22;5030;51.532;6.766;2023-04-06T04:57:17;-0.90;99.90
9980;DHT22;5030;51.532;6.766;2023-04-06T04:59:43;-0.90;99.90
9980;DHT22;5030;51.532;6.766;2023-04-06T05:02:09;-0.90;99.90
9980;DHT22;5030;51.532;6.766;2023-04-06T05:04:35;-0.90;99.90
9980;DHT22;5030;51.532;6.766;2023-04-06T05:07:08;-0.90;99.90
9980;DHT22;5030;51.532;6.766;2023-04-06T05:09:34;-0.80;99.90
9980;DHT22;5030;51.532;6.766;2023-04-06T05:12:00;-0.90;99.90
9980;DHT22;5030;51.532;6.766;2023-04-06T05:14:29;-0.80;99.90
9980;DHT22;5030;51.532;6.766;2023-04-06T05:16:55;-0.80;99.90
9980;DHT22;5030;51.532;6.766;2023-04-06T05:19:21;-0.70;99.90
9980;DHT22;5030;51.532;6.766;2023-04-06T05:21:46;-0.70;99.90
9980;DHT22;5030;51.532;6.766;2023-04-06T05:24:12;-0.70;99.90
9980;DHT22;5030;51.532;6.766;2023-04-06T05:26:38;-0.60;99.90
9980;DHT22;5030;51.532;6.766;2023-04-06T05:29:04;-0.60;99.90
9980;DHT22;5030;51.532;6.766;2023-04-06T05:31:29;-0.50;99.90
9980;DHT22;5030;51.532;6.766;2023-04-06T05:33:56;-0.60;99.90
9980;DHT22;5030;51.532;6.766;2023-04-06T05:36:22;-0.50;99.90
9980;DHT22;5030;51.532;6.766;2023-04-06T05:38:48;-0.50;99.90
9980;DHT22;5030;51.532;6.766;2023-04-06T05:41:15;-0.30;99.90
9980;DHT22;5030;51.532;6.766;2023-04-06T05:43:41;-0.40;99.90
9980;DHT22;5030;51.532;6.766;2023-04-06T05:46:07;-0.20;99.90
9980;DHT22;5030;51.532;6.766;2023-04-06T05:48:33;-0.20;99.90
9980;DHT22;5030;51.532;6.766;2023-04-06T05:50:58;-0.20;99.90
9980;DHT22;5030;51.532;6.766;2023-04-06T05:53:25;-0.10;99.90
9980;DHT22;5030;51.532;6.766;2023-04-06T05:55:51;-0.10;99.90
9980;DHT22;5030;51.532;6.766;2023-04-06T05:58:17;0.00;99.90
9980;DHT22;5030;51.532;6.766;2023-04-06T06:00:43;0.10;99.90
9980;DHT22;5030;51.532;6.766;2023-04-06T06:03:11;0.10;99.90
9980;DHT22;5030;51.532;6.766;2023-04-06T06:05:37;0.10;99.90
9980;DHT22;5030;51.532;6.766;2023-04-06T06:08:03;0.20;99.90
9980;DHT22;5030;51.532;6.766;2023-04-06T06:10:28;0.30;99.90
9980;DHT22;5030;51.532;6.766;2023-04-06T06:12:55;0.40;99.90
9980;DHT22;5030;51.532;6.766;2023-04-06T06:15:21;0.50;99.90
9980;DHT22;5030;51.532;6.766;2023-04-06T06:17:46;0.60;99.90
9980;DHT22;5030;51.532;6.766;2023-04-06T06:20:13;0.80;99.90
9980;DHT22;5030;51.532;6.766;2023-04-06T06:22:39;0.90;99.90
9980;DHT22;5030;51.532;6.766;2023-04-06T06:25:05;1.00;99.90
9980;DHT22;5030;51.532;6.766;2023-04-06T06:27:31;1.20;99.90
9980;DHT22;5030;51.532;6.766;2023-04-06T06:29:57;1.30;99.90
9980;DHT22;5030;51.532;6.766;2023-04-06T06:32:22;1.50;99.90
9980;DHT22;5030;51.532;6.766;2023-04-06T06:34:48;1.60;99.90
9980;DHT22;5030;51.532;6.766;2023-04-06T06:37:14;1.70;99.90
9980;DHT22;5030;51.532;6.766;2023-04-06T06:39:39;1.80;99.90
9980;DHT22;5030;51.532;6.766;2023-04-06T06:42:05;2.10;99.90
9980;DHT22;5030;51.532;6.766;2023-04-06T06:44:31;2.30;99.90
9980;DHT22;5030;51.532;6.766;2023-04-06T06:46:57;2.30;99.90
9980;DHT22;5030;51.532;6.766;2023-04-06T06:49:23;2.50;99.90
9980;DHT22;5030;51.532;6.766;2023-04-06T06:51:48;2.60;99.90
9980;DHT22;5030;51.532;6.766;2023-04-06T06:54:14;2.70;99.90
9980;DHT22;5030;51.532;6.766;2023-04-06T06:56:40;3.00;99.90
9980;DHT22;5030;51.532;6.766;2023-04-06T06:59:05;3.20;95.60
9980;DHT22;5030;51.532;6.766;2023-04-06T07:01:32;3.40;92.50
9980;DHT22;5030;51.532;6.766;2023-04-06T07:03:59;3.50;89.30
9980;DHT22;5030;51.532;6.766;2023-04-06T07:06:25;3.80;85.00
9980;DHT22;5030;51.532;6.766;2023-04-06T07:08:51;4.10;68.00
9980;DHT22;5030;51.532;6.766;2023-04-06T07:11:16;4.40;58.90
9980;DHT22;5030;51.532;6.766;2023-04-06T07:13:42;4.40;57.00
9980;DHT22;5030;51.532;6.766;2023-04-06T07:16:08;4.80;52.50
9980;DHT22;5030;51.532;6.766;2023-04-06T07:18:34;4.90;47.40
9980;DHT22;5030;51.532;6.766;2023-04-06T07:21:00;5.20;39.30
9980;DHT22;5030;51.532;6.766;2023-04-06T07:23:26;5.50;38.00
9980;DHT22;5030;51.532;6.766;2023-04-06T07:25:51;5.70;29.10
9980;DHT22;5030;51.532;6.766;2023-04-06T07:28:19;5.90;25.80
9980;DHT22;5030;51.532;6.766;2023-04-06T07:30:47;6.10;19.50
9980;DHT22;5030;51.532;6.766;2023-04-06T07:33:13;6.40;16.90
9980;DHT22;5030;51.532;6.766;2023-04-06T07:35:38;6.60;13.40
9980;DHT22;5030;51.532;6.766;2023-04-06T07:38:04;6.70;12.40
9980;DHT22;5030;51.532;6.766;2023-04-06T07:40:30;6.90;6.20
9980;DHT22;5030;51.532;6.766;2023-04-06T07:42:58;7.00;2.00
9980;DHT22;5030;51.532;6.766;2023-04-06T07:45:23;7.20;1.00
9980;DHT22;5030;51.532;6.766;2023-04-06T07:47:49;7.20;1.00
9980;DHT22;5030;51.532;6.766;2023-04-06T07:50:15;7.30;1.00
9980;DHT22;5030;51.532;6.766;2023-04-06T07:52:41;7.60;1.00
9980;DHT22;5030;51.532;6.766;2023-04-06T07:55:07;7.50;1.00
9980;DHT22;5030;51.532;6.766;2023-04-06T07:57:33;7.70;1.00
9980;DHT22;5030;51.532;6.766;2023-04-06T07:59:59;7.90;1.00
9980;DHT22;5030;51.532;6.766;2023-04-06T08:02:24;8.10;1.00
9980;DHT22;5030;51.532;6.766;2023-04-06T08:04:50;8.20;1.00
9980;DHT22;5030;51.532;6.766;2023-04-06T08:07:16;8.40;1.00
9980;DHT22;5030;51.532;6.766;2023-04-06T08:09:42;8.60;1.00
9980;DHT22;5030;51.532;6.766;2023-04-06T08:12:08;8.70;1.00
9980;DHT22;5030;51.532;6.766;2023-04-06T08:14:33;8.90;1.00
9980;DHT22;5030;51.532;6.766;2023-04-06T08:16:59;9.00;1.00
9980;DHT22;5030;51.532;6.766;2023-04-06T08:19:25;9.00;1.00
9980;DHT22;5030;51.532;6.766;2023-04-06T08:21:51;9.10;1.00
9980;DHT22;5030;51.532;6.766;2023-04-06T08:24:18;9.20;1.00
9980;DHT22;5030;51.532;6.766;2023-04-06T08:26:43;9.30;1.00
9980;DHT22;5030;51.532;6.766;2023-04-06T08:29:09;9.30;1.00
9980;DHT22;5030;51.532;6.766;2023-04-06T08:31:35;9.40;1.00
9980;DHT22;5030;51.532;6.766;2023-04-06T08:34:03;9.40;1.00
9980;DHT22;5030;51.532;6.766;2023-04-06T08:36:28;9.50;1.00
9980;DHT22;5030;51.532;6.766;2023-04-06T08:38:54;9.60;1.00
9980;DHT22;5030;51.532;6.766;2023-04-06T08:41:20;9.70;1.00
9980;DHT22;5030;51.532;6.766;2023-04-06T08:43:57;9.80;1.00
9980;DHT22;5030;51.532;6.766;2023-04-06T08:46:23;9.90;1.00
9980;DHT22;5030;51.532;6.766;2023-04-06T08:48:56;9.80;1.00
9980;DHT22;5030;51.532;6.766;2023-04-06T08:51:23;10.00;1.00
9980;DHT22;5030;51.532;6.766;2023-04-06T08:53:50;10.10;1.00
9980;DHT22;5030;51.532;6.766;2023-04-06T08:56:16;10.30;1.00
9980;DHT22;5030;51.532;6.766;2023-04-06T08:58:43;10.60;1.00
9980;DHT22;5030;51.532;6.766;2023-04-06T09:01:11;10.80;1.00
9980;DHT22;5030;51.532;6.766;2023-04-06T09:03:40;11.10;1.00
9980;DHT22;5030;51.532;6.766;2023-04-06T09:06:06;11.30;1.00
9980;DHT22;5030;51.532;6.766;2023-04-06T09:08:37;11.50;1.00
9980;DHT22;5030;51.532;6.766;2023-04-06T09:11:04;11.70;1.00
9980;DHT22;5030;51.532;6.766;2023-04-06T09:13:30;11.70;1.00
9980;DHT22;5030;51.532;6.766;2023-04-06T09:16:03;11.80;1.00
9980;DHT22;5030;51.532;6.766;2023-04-06T09:18:31;12.00;1.00
9980;DHT22;5030;51.532;6.766;2023-04-06T09:21:06;11.70;1.00
9980;DHT22;5030;51.532;6.766;2023-04-06T09:23:33;11.80;1.00
9980;DHT22;5030;51.532;6.766;2023-04-06T09:26:10;12.20;1.00
9980;DHT22;5030;51.532;6.766;2023-04-06T09:31:16;12.90;1.00
9980;DHT22;5030;51.532;6.766;2023-04-06T09:33:45;13.00;1.00
9980;DHT22;5030;51.532;6.766;2023-04-06T09:36:12;12.80;1.00
9980;DHT22;5030;51.532;6.766;2023-04-06T09:38:54;13.00;1.00
9980;DHT22;5030;51.532;6.766;2023-04-06T09:41:31;13.00;1.00
9980;DHT22;5030;51.532;6.766;2023-04-06T09:46:32;13.10;1.00
9980;DHT22;5030;51.532;6.766;2023-04-06T09:49:02;13.30;1.00
9980;DHT22;5030;51.532;6.766;2023-04-06T09:51:37;13.30;1.00
9980;DHT22;5030;51.532;6.766;2023-04-06T09:54:04;13.30;1.00
9980;DHT22;5030;51.532;6.766;2023-04-06T09:56:58;13.30;1.00
9980;DHT22;5030;51.532;6.766;2023-04-06T10:01:58;13.10;1.00
9980;DHT22;5030;51.532;6.766;2023-04-06T10:07:00;13.40;1.00
9980;DHT22;5030;51.532;6.766;2023-04-06T10:09:29;13.50;1.00
9980;DHT22;5030;51.532;6.766;2023-04-06T10:12:05;13.60;1.00
9980;DHT22;5030;51.532;6.766;2023-04-06T10:14:34;13.50;1.00
9980;DHT22;5030;51.532;6.766;2023-04-06T10:17:04;13.60;1.00
9980;DHT22;5030;51.532;6.766;2023-04-06T10:19:50;13.70;1.00
9980;DHT22;5030;51.532;6.766;2023-04-06T10:22:38;13.80;1.00
9980;DHT22;5030;51.532;6.766;2023-04-06T10:25:04;13.80;1.00
9980;DHT22;5030;51.532;6.766;2023-04-06T10:27:31;13.70;1.00
9980;DHT22;5030;51.532;6.766;2023-04-06T10:30:05;13.90;1.00
9980;DHT22;5030;51.532;6.766;2023-04-06T10:32:36;14.30;1.00
9980;DHT22;5030;51.532;6.766;2023-04-06T10:35:10;14.80;1.00
9980;DHT22;5030;51.532;6.766;2023-04-06T10:38:01;14.30;1.00
9980;DHT22;5030;51.532;6.766;2023-04-06T10:40:27;14.50;1.00
9980;DHT22;5030;51.532;6.766;2023-04-06T10:42:54;14.60;1.00
9980;DHT22;5030;51.532;6.766;2023-04-06T10:45:25;14.80;1.00
9980;DHT22;5030;51.532;6.766;2023-04-06T10:47:55;14.70;1.00
9980;DHT22;5030;51.532;6.766;2023-04-06T10:50:22;14.70;1.00
9980;DHT22;5030;51.532;6.766;2023-04-06T10:53:01;14.60;1.00
9980;DHT22;5030;51.532;6.766;2023-04-06T10:55:28;14.00;1.00
9980;DHT22;5030;51.532;6.766;2023-04-06T10:57:54;14.10;1.00
9980;DHT22;5030;51.532;6.766;2023-04-06T11:00:20;14.40;1.00
9980;DHT22;5030;51.532;6.766;2023-04-06T11:02:46;14.60;1.00
9980;DHT22;5030;51.532;6.766;2023-04-06T11:05:13;14.40;1.00
9980;DHT22;5030;51.532;6.766;2023-04-06T11:07:39;14.60;1.00
9980;DHT22;5030;51.532;6.766;2023-04-06T11:10:06;14.40;1.00
9980;DHT22;5030;51.532;6.766;2023-04-06T11:12:32;14.70;1.00
9980;DHT22;5030;51.532;6.766;2023-04-06T11:14:59;14.90;1.00
9980;DHT22;5030;51.532;6.766;2023-04-06T11:17:35;15.00;1.00
9980;DHT22;5030;51.532;6.766;2023-04-06T11:20:03;14.40;1.00
9980;DHT22;5030;51.532;6.766;2023-04-06T11:22:31;14.80;1.00
9980;DHT22;5030;51.532;6.766;2023-04-06T11:25:07;14.80;1.00
9980;DHT22;5030;51.532;6.766;2023-04-06T11:27:36;14.40;1.00
9980;DHT22;5030;51.532;6.766;2023-04-06T11:30:03;14.40;1.00
9980;DHT22;5030;51.532;6.766;2023-04-06T11:32:28;14.60;1.00
9980;DHT22;5030;51.532;6.766;2023-04-06T11:34:54;14.90;1.00
9980;DHT22;5030;51.532;6.766;2023-04-06T11:37:26;14.80;1.00
9980;DHT22;5030;51.532;6.766;2023-04-06T11:39:54;15.00;1.00
9980;DHT22;5030;51.532;6.766;2023-04-06T11:42:27;15.10;1.00
9980;DHT22;5030;51.532;6.766;2023-04-06T11:44:58;15.00;1.00
9980;DHT22;5030;51.532;6.766;2023-04-06T11:47:29;15.10;1.00
9980;DHT22;5030;51.532;6.766;2023-04-06T11:49:55;14.70;1.00
9980;DHT22;5030;51.532;6.766;2023-04-06T11:52:27;14.20;1.00
9980;DHT22;5030;51.532;6.766;2023-04-06T11:54:54;14.00;1.00
9980;DHT22;5030;51.532;6.766;2023-04-06T11:57:22;14.00;1.00
9980;DHT22;5030;51.532;6.766;2023-04-06T11:59:51;13.70;1.00
9980;DHT22;5030;51.532;6.766;2023-04-06T12:02:17;13.70;1.00
9980;DHT22;5030;51.532;6.766;2023-04-06T12:04:43;13.70;1.00
9980;DHT22;5030;51.532;6.766;2023-04-06T12:07:09;13.40;1.00
9980;DHT22;5030;51.532;6.766;2023-04-06T12:09:35;12.90;1.00
9980;DHT22;5030;51.532;6.766;2023-04-06T12:12:02;13.10;1.00
9980;DHT22;5030;51.532;6.766;2023-04-06T12:14:29;13.40;1.00
9980;DHT22;5030;51.532;6.766;2023-04-06T12:16:58;13.60;1.00
9980;DHT22;5030;51.532;6.766;2023-04-06T12:19:24;13.60;1.00
9980;DHT22;5030;51.532;6.766;2023-04-06T12:21:52;13.60;1.00
9980;DHT22;5030;51.532;6.766;2023-04-06T12:24:18;13.70;1.00
9980;DHT22;5030;51.532;6.766;2023-04-06T12:26:44;13.60;1.00
9980;DHT22;5030;51.532;6.766;2023-04-06T12:29:10;13.90;1.00
9980;DHT22;5030;51.532;6.766;2023-04-06T12:31:38;14.00;1.00
9980;DHT22;5030;51.532;6.766;2023-04-06T12:34:06;13.90;1.00
9980;DHT22;5030;51.532;6.766;2023-04-06T12:36:32;13.60;1.00
9980;DHT22;5030;51.532;6.766;2023-04-06T12:38:59;13.70;1.00
9980;DHT22;5030;51.532;6.766;2023-04-06T12:41:29;13.70;1.00
9980;DHT22;5030;51.532;6.766;2023-04-06T12:43:55;13.60;1.00
9980;DHT22;5030;51.532;6.766;2023-04-06T12:46:21;14.00;1.00
9980;DHT22;5030;51.532;6.766;2023-04-06T12:48:47;14.10;1.00
9980;DHT22;5030;51.532;6.766;2023-04-06T12:51:13;13.40;1.00
9980;DHT22;5030;51.532;6.766;2023-04-06T12:53:39;13.40;1.00
9980;DHT22;5030;51.532;6.766;2023-04-06T12:56:23;13.60;1.00
9980;DHT22;5030;51.532;6.766;2023-04-06T12:58:51;13.30;1.00
9980;DHT22;5030;51.532;6.766;2023-04-06T13:01:17;13.50;1.00
9980;DHT22;5030;51.532;6.766;2023-04-06T13:03:44;13.60;1.00
9980;DHT22;5030;51.532;6.766;2023-04-06T13:06:10;13.60;1.00
9980;DHT22;5030;51.532;6.766;2023-04-06T13:08:37;13.40;1.00
9980;DHT22;5030;51.532;6.766;2023-04-06T13:11:04;13.10;1.00
9980;DHT22;5030;51.532;6.766;2023-04-06T13:13:30;13.10;1.00
9980;DHT22;5030;51.532;6.766;2023-04-06T13:16:02;13.10;1.00
9980;DHT22;5030;51.532;6.766;2023-04-06T13:18:29;12.90;1.00
9980;DHT22;5030;51.532;6.766;2023-04-06T13:20:56;12.60;1.00
9980;DHT22;5030;51.532;6.766;2023-04-06T13:23:22;12.40;1.00
9980;DHT22;5030;51.532;6.766;2023-04-06T13:25:56;12.20;1.00
9980;DHT22;5030;51.532;6.766;2023-04-06T13:28:22;12.30;1.00
9980;DHT22;5030;51.532;6.766;2023-04-06T13:30:48;12.30;1.00
9980;DHT22;5030;51.532;6.766;2023-04-06T13:33:14;12.30;1.00
9980;DHT22;5030;51.532;6.766;2023-04-06T13:35:44;12.30;1.00
9980;DHT22;5030;51.532;6.766;2023-04-06T13:38:10;12.40;1.00
9980;DHT22;5030;51.532;6.766;2023-04-06T13:40:39;12.70;1.00
9980;DHT22;5030;51.532;6.766;2023-04-06T13:43:05;12.70;1.00
9980;DHT22;5030;51.532;6.766;2023-04-06T13:45:31;12.70;1.00
9980;DHT22;5030;51.532;6.766;2023-04-06T13:47:57;12.70;1.00
9980;DHT22;5030;51.532;6.766;2023-04-06T13:50:25;12.50;1.00
9980;DHT22;5030;51.532;6.766;2023-04-06T13:52:51;12.20;1.00
9980;DHT22;5030;51.532;6.766;2023-04-06T13:55:16;12.20;1.00
9980;DHT22;5030;51.532;6.766;2023-04-06T13:57:42;12.50;1.00
9980;DHT22;5030;51.532;6.766;2023-04-06T14:00:08;12.70;1.00
9980;DHT22;5030;51.532;6.766;2023-04-06T14:02:36;12.90;1.00
9980;DHT22;5030;51.532;6.766;2023-04-06T14:05:02;12.80;1.00
9980;DHT22;5030;51.532;6.766;2023-04-06T14:07:28;12.60;1.00
9980;DHT22;5030;51.532;6.766;2023-04-06T14:09:54;12.50;1.00
9980;DHT22;5030;51.532;6.766;2023-04-06T14:12:20;12.50;8.80
9980;DHT22;5030;51.532;6.766;2023-04-06T14:14:46;12.30;9.90
9980;DHT22;5030;51.532;6.766;2023-04-06T14:17:11;12.10;19.80
9980;DHT22;5030;51.532;6.766;2023-04-06T14:19:37;12.20;26.50
9980;DHT22;5030;51.532;6.766;2023-04-06T14:22:03;12.20;18.50
9980;DHT22;5030;51.532;6.766;2023-04-06T14:24:29;12.20;26.40
9980;DHT22;5030;51.532;6.766;2023-04-06T14:26:55;12.20;25.40
9980;DHT22;5030;51.532;6.766;2023-04-06T14:29:22;12.10;35.00
9980;DHT22;5030;51.532;6.766;2023-04-06T14:31:48;12.10;41.40
9980;DHT22;5030;51.532;6.766;2023-04-06T14:34:14;11.60;61.10
9980;DHT22;5030;51.532;6.766;2023-04-06T14:36:41;11.30;81.60
9980;DHT22;5030;51.532;6.766;2023-04-06T14:39:07;11.00;92.80
9980;DHT22;5030;51.532;6.766;2023-04-06T14:41:34;11.20;99.10
9980;DHT22;5030;51.532;6.766;2023-04-06T14:44:00;10.80;97.90
9980;DHT22;5030;51.532;6.766;2023-04-06T14:46:26;10.90;99.90
9980;DHT22;5030;51.532;6.766;2023-04-06T14:48:54;11.20;99.90
9980;DHT22;5030;51.532;6.766;2023-04-06T14:51:21;11.00;98.40
9980;DHT22;5030;51.532;6.766;2023-04-06T14:53:47;10.90;99.20
9980;DHT22;5030;51.532;6.766;2023-04-06T14:56:13;11.10;99.90
9980;DHT22;5030;51.532;6.766;2023-04-06T14:58:38;11.10;99.90
9980;DHT22;5030;51.532;6.766;2023-04-06T15:01:04;11.10;99.90
9980;DHT22;5030;51.532;6.766;2023-04-06T15:03:31;11.00;99.90
9980;DHT22;5030;51.532;6.766;2023-04-06T15:05:58;10.80;99.90
9980;DHT22;5030;51.532;6.766;2023-04-06T15:08:24;10.70;99.90
9980;DHT22;5030;51.532;6.766;2023-04-06T15:10:51;10.70;99.90
9980;DHT22;5030;51.532;6.766;2023-04-06T15:13:17;10.50;99.90
9980;DHT22;5030;51.532;6.766;2023-04-06T15:15:43;10.60;99.90
9980;DHT22;5030;51.532;6.766;2023-04-06T15:18:10;10.40;99.90
9980;DHT22;5030;51.532;6.766;2023-04-06T15:20:36;10.20;99.90
9980;DHT22;5030;51.532;6.766;2023-04-06T15:23:02;10.10;99.90
9980;DHT22;5030;51.532;6.766;2023-04-06T15:25:29;10.10;99.90
9980;DHT22;5030;51.532;6.766;2023-04-06T15:27:55;10.10;99.90
9980;DHT22;5030;51.532;6.766;2023-04-06T15:30:21;10.00;99.90
9980;DHT22;5030;51.532;6.766;2023-04-06T15:32:55;10.00;99.90
9980;DHT22;5030;51.532;6.766;2023-04-06T15:35:23;9.90;99.90
9980;DHT22;5030;51.532;6.766;2023-04-06T15:37:48;9.80;99.90
9980;DHT22;5030;51.532;6.766;2023-04-06T15:40:14;9.80;99.90
9980;DHT22;5030;51.532;6.766;2023-04-06T15:42:41;9.70;99.90
9980;DHT22;5030;51.532;6.766;2023-04-06T15:45:09;9.60;99.90
9980;DHT22;5030;51.532;6.766;2023-04-06T15:47:39;9.60;99.90
9980;DHT22;5030;51.532;6.766;2023-04-06T15:50:05;9.50;99.90
9980;DHT22;5030;51.532;6.766;2023-04-06T15:52:31;9.50;99.90
9980;DHT22;5030;51.532;6.766;2023-04-06T15:54:58;9.30;99.90
9980;DHT22;5030;51.532;6.766;2023-04-06T15:57:24;9.30;99.90
9980;DHT22;5030;51.532;6.766;2023-04-06T15:59:50;9.40;99.90
9980;DHT22;5030;51.532;6.766;2023-04-06T16:02:16;9.30;99.90
9980;DHT22;5030;51.532;6.766;2023-04-06T16:04:42;9.10;99.90
9980;DHT22;5030;51.532;6.766;2023-04-06T16:07:08;9.20;99.90
9980;DHT22;5030;51.532;6.766;2023-04-06T16:09:33;9.20;99.90
9980;DHT22;5030;51.532;6.766;2023-04-06T16:11:59;9.10;99.90
9980;DHT22;5030;51.532;6.766;2023-04-06T16:14:26;9.20;99.90
9980;DHT22;5030;51.532;6.766;2023-04-06T16:16:51;9.20;99.90
9980;DHT22;5030;51.532;6.766;2023-04-06T16:19:17;9.00;99.90
9980;DHT22;5030;51.532;6.766;2023-04-06T16:21:43;8.90;99.90
9980;DHT22;5030;51.532;6.766;2023-04-06T16:24:09;8.90;99.90
9980;DHT22;5030;51.532;6.766;2023-04-06T16:26:34;8.90;99.90